Time;durP1;ratioP1;P1;durP2;ratioP2;P2;SDS_P1;SDS_P2;PMS_P1;PMS_P2;Temp;Humidity;BMP_temperature;BMP_pressure;BME280_temperature;BME280_humidity;BME280_pressure;Samples;Min_cycle;Max_cycle;Signal;HPM_P1;HPM_P2
2023/12/12 00:02:25;;;;;;;19.00;12.70;;;;;;;-1.48;93.22;99297.98;106566;1261;59545;-80
2023/12/12 00:04:52;;;;;;;21.70;13.70;;;;;;;-1.57;93.27;99297.01;106772;1259;72628;-80
2023/12/12 00:07:20;;;;;;;17.00;11.80;;;;;;;-1.62;93.95;99295.59;107314;1261;220571;-81
2023/12/12 00:10:27;;;;;;;19.10;12.50;;;;;;;-1.49;93.85;99298.69;103518;1295;600551;-81
2023/12/12 00:12:55;;;;;;;20.00;12.40;;;;;;;-1.47;93.45;99296.98;105851;1276;58893;-81
2023/12/12 00:15:23;;;;;;;19.20;13.00;;;;;;;-1.52;93.43;99296.83;105755;1267;59689;-80
2023/12/12 00:17:50;;;;;;;19.20;12.00;;;;;;;-1.59;93.56;99299.52;105983;1267;70083;-82
2023/12/12 00:20:18;;;;;;;21.40;13.20;;;;;;;-1.56;93.39;99300.20;108341;1257;71792;-80
2023/12/12 00:22:45;;;;;;;18.60;12.20;;;;;;;-1.46;93.02;99298.52;108935;1261;71277;-80
2023/12/12 00:25:13;;;;;;;19.90;12.80;;;;;;;-1.48;92.73;99302.32;107552;1257;176713;-81
2023/12/12 00:27:41;;;;;;;21.00;13.80;;;;;;;-1.57;93.17;99299.23;107038;1262;59064;-79
2023/12/12 00:30:08;;;;;;;25.70;14.70;;;;;;;-1.64;93.76;99297.09;106385;1257;70983;-81
2023/12/12 00:32:36;;;;;;;24.20;15.70;;;;;;;-1.66;93.93;99294.10;106037;1262;69328;-80
2023/12/12 00:35:06;;;;;;;21.40;14.30;;;;;;;-1.60;93.41;99293.00;108176;1258;72775;-80
2023/12/12 00:37:34;;;;;;;20.60;13.80;;;;;;;-1.56;93.21;99285.48;107481;1257;59698;-80
2023/12/12 00:40:02;;;;;;;21.80;15.20;;;;;;;-1.62;93.57;99282.02;107528;1257;59259;-80
2023/12/12 00:42:29;;;;;;;22.60;14.30;;;;;;;-1.67;94.03;99284.95;107175;1262;73201;-80
2023/12/12 00:44:57;;;;;;;21.60;13.70;;;;;;;-1.67;93.98;99287.73;107023;1260;72350;-81
2023/12/12 00:47:25;;;;;;;22.70;13.50;;;;;;;-1.59;93.61;99283.39;107000;1262;72449;-81
2023/12/12 00:49:52;;;;;;;17.80;11.50;;;;;;;-1.61;93.21;99289.41;107079;1260;59292;-79
2023/12/12 00:52:20;;;;;;;17.40;12.30;;;;;;;-1.71;93.32;99286.80;106419;1258;59704;-81
2023/12/12 00:54:48;;;;;;;19.50;11.20;;;;;;;-1.79;93.75;99276.70;106194;1257;73074;-78
2023/12/12 00:57:16;;;;;;;20.60;12.30;;;;;;;-1.81;93.40;99275.65;106092;1264;70470;-80
2023/12/12 00:59:43;;;;;;;19.10;12.00;;;;;;;-1.75;93.16;99273.39;106156;1264;71506;-82
2023/12/12 01:02:11;;;;;;;21.50;13.90;;;;;;;-1.76;92.98;99267.49;106473;1263;59785;-80
2023/12/12 01:04:38;;;;;;;20.20;12.70;;;;;;;-1.82;93.46;99264.56;106607;1262;59669;-81
2023/12/12 01:07:06;;;;;;;25.60;13.60;;;;;;;-1.85;93.76;99262.33;106458;1262;71776;-80
2023/12/12 01:09:34;;;;;;;20.10;12.90;;;;;;;-1.82;93.63;99260.61;107008;1257;68837;-80
2023/12/12 01:12:01;;;;;;;20.30;12.90;;;;;;;-1.72;93.22;99251.95;107324;1261;71683;-79
2023/12/12 01:14:29;;;;;;;21.10;13.70;;;;;;;-1.71;93.30;99249.96;107882;1256;58340;-78
2023/12/12 01:16:57;;;;;;;22.40;13.90;;;;;;;-1.76;93.34;99250.35;107917;1262;59337;-80
2023/12/12 01:19:25;;;;;;;20.70;13.50;;;;;;;-1.79;93.32;99251.75;106777;1258;71454;-79
2023/12/12 01:21:53;;;;;;;20.70;13.60;;;;;;;-1.74;93.31;99250.35;106739;1257;68711;-80
2023/12/12 01:24:21;;;;;;;21.70;13.50;;;;;;;-1.76;93.32;99248.42;106629;1257;71082;-80
2023/12/12 01:26:49;;;;;;;19.70;13.20;;;;;;;-1.80;93.65;99248.31;106789;1263;59637;-80
2023/12/12 01:29:18;;;;;;;19.20;11.80;;;;;;;-1.83;93.71;99246.39;106630;1260;59543;-79
2023/12/12 01:31:45;;;;;;;17.60;11.40;;;;;;;-1.75;93.35;99248.54;107302;1262;71785;-79
2023/12/12 01:34:13;;;;;;;17.60;12.10;;;;;;;-1.67;92.81;99250.04;106683;1261;68728;-80
2023/12/12 01:36:41;;;;;;;22.40;13.30;;;;;;;-1.71;92.63;99243.23;107807;1257;72762;-81
2023/12/12 01:39:09;;;;;;;21.50;12.40;;;;;;;-1.83;92.36;99234.13;107633;1257;58677;-81
2023/12/12 01:41:36;;;;;;;20.70;12.50;;;;;;;-1.94;92.45;99228.05;107480;1258;60013;-82
2023/12/12 01:44:04;;;;;;;21.20;12.70;;;;;;;-1.90;92.49;99229.70;107687;1256;71815;-79
2023/12/12 01:46:31;;;;;;;19.50;12.40;;;;;;;-1.85;92.43;99229.56;108406;1257;69055;-81
2023/12/12 01:48:59;;;;;;;22.00;12.40;;;;;;;-1.89;92.62;99229.81;108728;1257;71631;-81
2023/12/12 01:51:27;;;;;;;20.00;12.90;;;;;;;-1.96;92.61;99230.08;108096;1257;59075;-80
2023/12/12 01:53:55;;;;;;;18.80;11.90;;;;;;;-2.02;92.85;99225.95;107258;1263;60085;-79
2023/12/12 01:56:22;;;;;;;17.60;11.20;;;;;;;-1.99;92.49;99225.43;107340;1257;71172;-78
2023/12/12 01:58:51;;;;;;;16.30;10.30;;;;;;;-1.96;92.46;99231.17;107308;1257;69169;-79
2023/12/12 02:01:20;;;;;;;17.90;11.50;;;;;;;-2.01;92.70;99229.90;107263;1257;72819;-77
2023/12/12 02:03:48;;;;;;;17.50;11.50;;;;;;;-2.09;93.06;99223.99;107281;1263;59436;-78
2023/12/12 02:06:21;;;;;;;19.00;11.90;;;;;;;-2.12;93.04;99216.04;108735;1257;59253;-75
2023/12/12 02:08:49;;;;;;;17.30;11.40;;;;;;;-2.01;92.92;99208.58;108940;1257;73331;-77
2023/12/12 02:11:17;;;;;;;20.80;12.70;;;;;;;-1.99;92.79;99208.27;108871;1257;68896;-76
2023/12/12 02:13:45;;;;;;;22.30;13.80;;;;;;;-2.05;93.05;99207.78;108746;1257;71823;-76
2023/12/12 02:16:13;;;;;;;22.50;13.40;;;;;;;-2.10;93.15;99201.38;108205;1261;59646;-78
2023/12/12 02:18:41;;;;;;;21.40;12.90;;;;;;;-2.08;93.25;99194.14;107036;1263;59675;-79
2023/12/12 02:21:13;;;;;;;19.10;12.10;;;;;;;-1.96;93.04;99191.95;106840;1257;71752;-78
2023/12/12 02:23:40;;;;;;;20.40;14.00;;;;;;;-1.94;93.04;99191.14;106947;1259;69214;-76
2023/12/12 02:26:08;;;;;;;21.60;13.90;;;;;;;-2.01;93.16;99195.71;106943;1261;72886;-78
2023/12/12 02:28:35;;;;;;;20.30;13.00;;;;;;;-2.07;93.24;99195.27;106489;1258;59832;-79
2023/12/12 02:31:03;;;;;;;20.90;12.80;;;;;;;-2.04;93.02;99191.08;106361;1257;60117;-79
2023/12/12 02:33:31;;;;;;;20.80;12.90;;;;;;;-2.01;92.63;99188.75;106388;1257;73098;-78
2023/12/12 02:35:59;;;;;;;22.70;14.40;;;;;;;-2.09;92.74;99182.88;106607;1258;68934;-79
2023/12/12 02:38:26;;;;;;;23.10;14.90;;;;;;;-2.17;93.29;99182.21;106369;1257;71412;-79
2023/12/12 02:40:54;;;;;;;23.40;14.70;;;;;;;-2.23;93.73;99179.27;106436;1257;59733;-81
2023/12/12 02:43:22;;;;;;;22.40;14.60;;;;;;;-2.12;93.57;99180.70;106534;1257;62073;-81
2023/12/12 02:45:49;;;;;;;23.30;13.90;;;;;;;-2.03;93.49;99181.82;108184;1257;70974;-83
2023/12/12 02:48:17;;;;;;;21.90;14.30;;;;;;;-2.05;93.38;99172.39;108679;1253;69117;-82
2023/12/12 02:50:45;;;;;;;25.40;14.60;;;;;;;-2.09;93.73;99168.14;108809;1257;72727;-83
2023/12/12 02:53:12;;;;;;;24.80;14.20;;;;;;;-2.11;93.66;99165.69;108763;1254;59653;-82
2023/12/12 02:55:40;;;;;;;24.80;15.30;;;;;;;-2.05;93.28;99164.73;108890;1254;59500;-81
2023/12/12 02:58:07;;;;;;;21.80;13.60;;;;;;;-1.99;93.02;99160.16;108702;1254;71794;-81
2023/12/12 03:00:35;;;;;;;22.20;14.60;;;;;;;-2.02;93.19;99161.58;108980;1253;68944;-80
2023/12/12 03:03:02;;;;;;;25.80;15.10;;;;;;;-2.02;93.65;99170.65;108665;1256;72746;-76
2023/12/12 03:05:30;;;;;;;27.60;16.20;;;;;;;-2.01;93.69;99177.70;108172;1253;59714;-79
2023/12/12 03:07:58;;;;;;;26.30;15.80;;;;;;;-1.94;93.20;99173.59;108051;1254;59813;-81
2023/12/12 03:10:26;;;;;;;26.10;15.80;;;;;;;-1.87;92.96;99174.87;108033;1255;71637;-79
2023/12/12 03:12:53;;;;;;;28.00;16.90;;;;;;;-1.91;93.11;99180.84;108025;1254;68944;-79
2023/12/12 03:15:21;;;;;;;28.40;16.00;;;;;;;-1.98;93.09;99182.15;109023;1254;72808;-83
2023/12/12 03:17:48;;;;;;;25.60;15.10;;;;;;;-2.04;92.99;99178.08;109362;1254;59586;-82
2023/12/12 03:20:16;;;;;;;24.70;15.70;;;;;;;-2.00;92.53;99173.77;109384;1254;58800;-80
2023/12/12 03:22:44;;;;;;;25.00;14.60;;;;;;;-1.95;92.53;99182.36;109384;1254;72405;-81
2023/12/12 03:25:13;;;;;;;22.70;14.90;;;;;;;-2.01;92.52;99181.86;109345;1254;69081;-82
2023/12/12 03:27:40;;;;;;;25.30;15.50;;;;;;;-2.09;92.83;99181.02;109267;1254;70986;-83
2023/12/12 03:30:09;;;;;;;26.90;16.30;;;;;;;-2.11;92.65;99176.95;109294;1254;59626;-83
2023/12/12 03:32:36;;;;;;;26.50;16.70;;;;;;;-2.06;92.71;99175.80;109255;1254;58740;-82
2023/12/12 03:35:04;;;;;;;24.90;15.50;;;;;;;-2.08;93.11;99176.77;109265;1254;71724;-85
2023/12/12 03:37:33;;;;;;;29.00;17.90;;;;;;;-2.14;93.47;99172.62;109145;1254;69632;-83
2023/12/12 03:40:02;;;;;;;30.30;17.30;;;;;;;-2.18;93.81;99177.36;109080;1252;71247;-82
2023/12/12 03:42:29;;;;;;;25.70;16.00;;;;;;;-2.10;93.63;99182.29;109264;1253;59685;-80
2023/12/12 03:44:57;;;;;;;24.80;15.70;;;;;;;-2.03;93.44;99189.83;109319;1253;60860;-82
2023/12/12 03:47:24;;;;;;;27.80;17.10;;;;;;;-2.05;93.49;99184.17;109503;1253;70980;-83
2023/12/12 03:49:52;;;;;;;29.30;18.00;;;;;;;-2.10;93.73;99186.12;109357;1253;68878;-83
2023/12/12 03:52:20;;;;;;;23.70;14.60;;;;;;;-2.10;93.25;99200.53;109245;1254;70098;-83
2023/12/12 03:54:47;;;;;;;20.30;13.30;;;;;;;-2.07;92.82;99199.41;109114;1253;58005;-84
2023/12/12 03:57:15;;;;;;;20.90;13.60;;;;;;;-2.11;92.95;99194.34;109133;1254;58788;-81
2023/12/12 03:59:43;;;;;;;24.70;15.50;;;;;;;-2.21;93.47;99186.09;109504;1253;72363;-83
2023/12/12 04:02:10;;;;;;;24.20;15.90;;;;;;;-2.27;93.66;99186.84;109451;1254;69036;-83
2023/12/12 04:04:38;;;;;;;21.80;14.70;;;;;;;-2.28;93.71;99183.44;109260;1254;71429;-83
2023/12/12 04:07:06;;;;;;;23.20;13.70;;;;;;;-2.14;93.47;99190.17;108922;1263;59038;-84
2023/12/12 04:11:31;;;;;;;27.30;17.00;;;;;;;-2.03;92.97;99186.16;105688;1291;599683;-83
2023/12/12 04:13:59;;;;;;;25.90;16.60;;;;;;;-2.14;93.01;99184.81;108488;1266;58466;-81
2023/12/12 04:16:26;;;;;;;29.50;16.70;;;;;;;-2.22;93.31;99184.40;108376;1266;60843;-80
2023/12/12 04:18:54;;;;;;;24.50;15.50;;;;;;;-2.17;93.18;99194.00;108365;1267;70765;-79
2023/12/12 04:21:22;;;;;;;26.20;16.20;;;;;;;-2.14;92.72;99192.77;108861;1257;69521;-81
2023/12/12 04:23:49;;;;;;;30.70;19.00;;;;;;;-2.23;92.81;99193.52;109023;1260;71841;-81
2023/12/12 04:26:17;;;;;;;28.20;16.20;;;;;;;-2.31;93.41;99192.02;109009;1257;166385;-82
2023/12/12 04:28:46;;;;;;;29.00;16.60;;;;;;;-2.34;93.54;99192.83;109098;1256;58890;-80
2023/12/12 04:31:15;;;;;;;27.10;15.80;;;;;;;-2.24;93.41;99192.75;108926;1259;70869;-80
2023/12/12 04:33:43;;;;;;;26.00;16.60;;;;;;;-2.19;93.26;99201.05;109047;1257;68700;-81
2023/12/12 04:36:16;;;;;;;23.90;14.60;;;;;;;-2.26;93.38;99201.37;109158;1256;71345;-81
2023/12/12 04:38:44;;;;;;;25.60;15.20;;;;;;;-2.35;93.75;99201.92;107953;1257;60127;-81
2023/12/12 04:41:11;;;;;;;24.50;14.50;;;;;;;-2.32;93.55;99205.72;108657;1254;58723;-83
2023/12/12 04:43:39;;;;;;;22.00;13.80;;;;;;;-2.28;93.38;99210.70;109173;1257;71459;-83
2023/12/12 04:46:07;;;;;;;24.30;15.70;;;;;;;-2.37;93.54;99210.36;109059;1257;68034;-82
2023/12/12 04:48:35;;;;;;;25.90;14.50;;;;;;;-2.45;93.88;99203.97;109172;1255;71394;-81
2023/12/12 04:51:03;;;;;;;26.70;14.90;;;;;;;-2.48;94.09;99213.20;109270;1256;59635;-82
2023/12/12 04:53:31;;;;;;;24.60;16.40;;;;;;;-2.39;93.86;99206.52;109292;1257;58752;-80
2023/12/12 04:55:58;;;;;;;20.20;13.50;;;;;;;-2.36;93.98;99203.58;109190;1256;71499;-80
2023/12/12 04:58:26;;;;;;;25.50;13.90;;;;;;;-2.40;94.23;99203.98;109081;1257;69019;-82
2023/12/12 05:00:54;;;;;;;21.90;14.30;;;;;;;-2.46;94.45;99202.12;109220;1257;71366;-80
2023/12/12 05:03:21;;;;;;;25.20;13.70;;;;;;;-2.44;94.05;99207.01;109294;1255;59613;-82
2023/12/12 05:05:49;;;;;;;25.00;15.10;;;;;;;-2.40;93.73;99204.13;109257;1257;58752;-83
2023/12/12 05:08:17;;;;;;;23.80;14.60;;;;;;;-2.44;93.97;99207.73;109220;1257;71471;-82
2023/12/12 05:10:44;;;;;;;23.60;13.70;;;;;;;-2.51;94.46;99203.70;109107;1256;68705;-83
2023/12/12 05:13:12;;;;;;;23.70;13.80;;;;;;;-2.56;94.62;99204.12;109046;1257;71436;-81
2023/12/12 05:15:40;;;;;;;24.90;15.40;;;;;;;-2.48;94.27;99204.16;109166;1256;59690;-83
2023/12/12 05:18:07;;;;;;;21.50;13.50;;;;;;;-2.49;94.33;99198.84;109232;1257;58687;-83
2023/12/12 05:20:35;;;;;;;23.30;14.70;;;;;;;-2.52;94.91;99197.14;109311;1257;71773;-83
2023/12/12 05:23:03;;;;;;;28.50;16.40;;;;;;;-2.51;95.35;99192.73;109189;1257;69117;-83
2023/12/12 05:25:30;;;;;;;30.10;16.80;;;;;;;-2.40;95.14;99191.34;109108;1257;71418;-83
2023/12/12 05:27:58;;;;;;;28.60;16.80;;;;;;;-2.29;94.80;99182.81;109190;1256;57976;-83
2023/12/12 05:30:25;;;;;;;32.50;19.70;;;;;;;-2.28;94.82;99177.72;109102;1256;58737;-80
2023/12/12 05:32:53;;;;;;;32.20;17.80;;;;;;;-2.30;95.07;99183.06;109029;1256;71599;-80
2023/12/12 05:35:22;;;;;;;29.10;16.60;;;;;;;-2.31;95.36;99181.05;109174;1260;69048;-80
2023/12/12 05:37:52;;;;;;;26.30;16.10;;;;;;;-2.23;94.53;99184.98;109212;1257;71389;-82
2023/12/12 05:40:19;;;;;;;25.00;15.60;;;;;;;-2.16;94.09;99181.59;109101;1257;59547;-82
2023/12/12 05:42:47;;;;;;;27.40;16.50;;;;;;;-2.20;94.13;99182.42;109138;1257;60139;-84
2023/12/12 05:45:15;;;;;;;26.90;16.60;;;;;;;-2.26;94.10;99180.70;109288;1255;71826;-80
2023/12/12 05:47:42;;;;;;;25.00;14.00;;;;;;;-2.29;94.31;99179.86;109229;1257;69354;-80
2023/12/12 05:50:11;;;;;;;22.30;13.20;;;;;;;-2.17;94.28;99188.98;109087;1257;71405;-81
2023/12/12 05:52:39;;;;;;;21.80;12.90;;;;;;;-2.07;93.72;99192.14;109069;1257;58424;-84
2023/12/12 05:55:08;;;;;;;18.60;12.60;;;;;;;-2.09;93.51;99195.55;109039;1257;58907;-82
2023/12/12 05:57:38;;;;;;;23.50;14.00;;;;;;;-2.12;93.52;99202.54;108952;1256;71787;-84
2023/12/12 06:00:07;;;;;;;22.10;13.70;;;;;;;-2.15;93.49;99203.58;109107;1256;68710;-85
2023/12/12 06:02:43;;;;;;;21.70;13.20;;;;;;;-2.06;93.15;99212.02;109159;1257;71676;-81
2023/12/12 06:05:11;;;;;;;23.50;14.10;;;;;;;-2.00;92.46;99208.52;109146;1257;57126;-81
2023/12/12 06:07:41;;;;;;;23.30;14.20;;;;;;;-2.06;92.76;99205.97;109269;1257;57753;-82
2023/12/12 06:10:10;;;;;;;23.00;13.60;;;;;;;-2.11;92.97;99213.04;109238;1257;71764;-81
2023/12/12 06:12:38;;;;;;;26.20;14.60;;;;;;;-2.15;93.05;99216.08;109067;1254;69192;-80
2023/12/12 06:15:07;;;;;;;28.20;15.80;;;;;;;-2.09;92.47;99221.59;109238;1254;71757;-81
2023/12/12 06:17:35;;;;;;;28.70;16.90;;;;;;;-2.03;92.29;99220.49;109275;1257;58978;-82
2023/12/12 06:20:04;;;;;;;28.70;17.60;;;;;;;-2.06;92.44;99221.02;109208;1256;58500;-83
2023/12/12 06:22:34;;;;;;;28.90;16.90;;;;;;;-2.08;92.98;99229.36;109182;1258;71853;-84
2023/12/12 06:25:01;;;;;;;28.10;17.10;;;;;;;-2.12;93.13;99228.90;109281;1254;68794;-85
2023/12/12 06:27:29;;;;;;;25.80;14.90;;;;;;;-2.08;92.87;99229.54;109360;1256;71412;-83
2023/12/12 06:29:58;;;;;;;28.80;17.20;;;;;;;-2.00;92.21;99221.02;109253;1256;58311;-82
2023/12/12 06:32:25;;;;;;;29.30;18.40;;;;;;;-2.01;92.42;99227.83;109025;1257;59271;-82
2023/12/12 06:34:53;;;;;;;26.20;16.60;;;;;;;-2.06;92.85;99227.27;109194;1257;74087;-83
2023/12/12 06:37:21;;;;;;;28.20;16.50;;;;;;;-2.11;93.16;99224.48;109277;1257;69632;-83
2023/12/12 06:39:50;;;;;;;34.10;18.20;;;;;;;-2.13;92.95;99223.78;109000;1265;75077;-85
2023/12/12 06:42:17;;;;;;;30.60;18.10;;;;;;;-2.02;92.68;99228.10;108775;1273;59585;-83
2023/12/12 06:44:45;;;;;;;32.10;18.00;;;;;;;-2.01;92.76;99220.55;108766;1270;59059;-85
2023/12/12 06:47:13;;;;;;;32.00;19.10;;;;;;;-2.06;93.09;99223.48;108389;1272;71661;-86
2023/12/12 06:49:41;;;;;;;38.40;20.60;;;;;;;-2.12;93.10;99220.39;106478;1291;68947;-80
2023/12/12 06:52:12;;;;;;;33.70;19.00;;;;;;;-2.02;93.21;99218.37;106349;1291;71117;-80
2023/12/12 06:55:54;;;;;;;31.20;18.90;;;;;;;-1.92;93.03;99213.20;105488;1291;600668;-83
2023/12/12 06:58:22;;;;;;;33.10;19.70;;;;;;;-1.91;93.86;99214.17;106016;1270;59116;-84
2023/12/12 07:00:50;;;;;;;34.20;19.20;;;;;;;-1.89;94.23;99209.16;105842;1267;60154;-83
2023/12/12 07:03:18;;;;;;;34.70;18.90;;;;;;;-1.85;94.17;99211.13;105709;1275;72422;-81
2023/12/12 07:05:46;;;;;;;34.70;20.40;;;;;;;-1.73;93.30;99211.27;106702;1266;69846;-82
2023/12/12 07:08:14;;;;;;;36.20;21.00;;;;;;;-1.68;92.97;99206.87;106099;1267;74728;-81
2023/12/12 07:10:42;;;;;;;33.10;20.50;;;;;;;-1.66;93.24;99207.27;105819;1264;164830;-81
2023/12/12 07:13:10;;;;;;;33.40;19.80;;;;;;;-1.65;93.23;99210.84;105798;1264;60618;-82
2023/12/12 07:15:39;;;;;;;35.60;20.50;;;;;;;-1.65;93.31;99208.98;105410;1269;72289;-80
2023/12/12 07:18:10;;;;;;;32.70;18.40;;;;;;;-1.66;93.12;99217.55;105395;1267;70140;-82
2023/12/12 07:20:38;;;;;;;34.20;20.10;;;;;;;-1.60;92.49;99212.59;105474;1269;71447;-80
2023/12/12 07:23:06;;;;;;;35.40;19.30;;;;;;;-1.54;91.76;99212.36;105549;1264;59736;-81
2023/12/12 07:25:34;;;;;;;34.60;19.90;;;;;;;-1.64;91.00;99213.54;105863;1257;59642;-81
2023/12/12 07:28:02;;;;;;;29.90;17.80;;;;;;;-1.76;91.23;99221.15;107684;1257;73107;-80
2023/12/12 07:30:30;;;;;;;28.20;16.60;;;;;;;-1.82;91.19;99222.55;109088;1257;70276;-81
2023/12/12 07:32:58;;;;;;;30.70;19.30;;;;;;;-1.75;90.91;99227.35;106866;1260;71261;-82
2023/12/12 07:35:26;;;;;;;34.20;20.90;;;;;;;-1.77;90.89;99227.12;106220;1257;59668;-80
2023/12/12 07:37:54;;;;;;;36.00;20.20;;;;;;;-1.86;91.18;99232.23;106217;1258;59327;-80
2023/12/12 07:40:21;;;;;;;32.20;18.50;;;;;;;-1.95;91.33;99235.94;106074;1257;74397;-81
2023/12/12 07:42:50;;;;;;;31.20;19.60;;;;;;;-1.93;91.20;99230.79;105926;1263;69957;-82
2023/12/12 07:45:18;;;;;;;33.90;20.70;;;;;;;-1.87;91.55;99230.36;105801;1257;71455;-81
2023/12/12 07:47:46;;;;;;;34.50;20.40;;;;;;;-1.90;91.68;99223.80;106309;1257;59727;-81
2023/12/12 07:50:17;;;;;;;34.70;20.80;;;;;;;-1.93;92.02;99228.86;107108;1254;60132;-82
2023/12/12 07:52:47;;;;;;;29.50;18.00;;;;;;;-1.96;92.01;99228.39;106842;1259;73095;-83
2023/12/12 07:55:15;;;;;;;28.00;16.60;;;;;;;-1.91;91.43;99237.40;106922;1252;70400;-81
2023/12/12 07:57:42;;;;;;;27.40;17.50;;;;;;;-1.86;91.17;99233.95;106837;1254;73237;-82
2023/12/12 08:00:11;;;;;;;28.80;18.60;;;;;;;-1.87;91.45;99231.25;106450;1259;59793;-80
2023/12/12 08:02:39;;;;;;;28.00;17.70;;;;;;;-1.88;91.98;99234.59;106303;1254;59508;-82
2023/12/12 08:05:06;;;;;;;25.20;15.40;;;;;;;-1.84;91.94;99229.48;106256;1260;71087;-83
2023/12/12 08:07:34;;;;;;;21.60;13.70;;;;;;;-1.70;91.54;99234.48;106219;1258;69011;-82
2023/12/12 08:10:03;;;;;;;20.30;12.40;;;;;;;-1.58;91.07;99241.16;106327;1259;71463;-82
2023/12/12 08:12:31;;;;;;;22.10;13.70;;;;;;;-1.62;90.44;99234.80;105990;1254;59631;-82
2023/12/12 08:14:59;;;;;;;22.60;14.20;;;;;;;-1.70;90.19;99233.44;106073;1259;60047;-80
2023/12/12 08:17:26;;;;;;;20.60;13.50;;;;;;;-1.74;90.46;99235.94;106837;1259;72982;-81
2023/12/12 08:19:54;;;;;;;20.20;13.10;;;;;;;-1.69;89.72;99239.77;106500;1263;69398;-81
2023/12/12 08:22:22;;;;;;;21.20;14.00;;;;;;;-1.66;89.37;99237.65;108438;1254;72496;-79
2023/12/12 08:24:51;;;;;;;23.00;13.10;;;;;;;-1.74;89.31;99234.56;109113;1254;62337;-81
2023/12/12 08:27:19;;;;;;;20.80;13.00;;;;;;;-1.85;89.62;99240.32;107789;1254;60132;-79
2023/12/12 08:29:49;;;;;;;19.10;13.40;;;;;;;-1.84;89.86;99247.73;108633;1254;72134;-82
2023/12/12 08:32:17;;;;;;;25.60;14.20;;;;;;;-1.70;89.81;99245.20;106491;1254;69399;-83
2023/12/12 08:34:45;;;;;;;26.90;15.90;;;;;;;-1.65;89.81;99231.73;105988;1262;71405;-81
2023/12/12 08:37:12;;;;;;;23.50;14.50;;;;;;;-1.61;90.59;99232.47;105940;1256;59737;-82
2023/12/12 08:39:40;;;;;;;29.90;17.20;;;;;;;-1.54;90.83;99231.85;105963;1260;59823;-83
2023/12/12 08:42:07;;;;;;;28.50;15.60;;;;;;;-1.48;90.52;99232.48;106112;1253;71928;-82
2023/12/12 08:44:35;;;;;;;27.30;16.60;;;;;;;-1.38;89.47;99234.91;106194;1259;70270;-83
2023/12/12 08:47:03;;;;;;;29.60;16.90;;;;;;;-1.34;88.99;99228.60;106370;1260;72748;-81
2023/12/12 08:49:33;;;;;;;27.20;17.60;;;;;;;-1.37;89.25;99229.45;106151;1259;59784;-82
2023/12/12 08:52:02;;;;;;;26.60;16.50;;;;;;;-1.41;89.39;99225.75;106317;1254;60167;-81
2023/12/12 08:54:30;;;;;;;23.50;14.30;;;;;;;-1.41;89.60;99225.40;106548;1259;72317;-80
2023/12/12 08:56:58;;;;;;;24.90;13.80;;;;;;;-1.36;88.91;99225.06;107492;1254;70515;-79
2023/12/12 08:59:25;;;;;;;19.50;12.70;;;;;;;-1.31;88.35;99235.88;106350;1255;72864;-82
2023/12/12 09:01:53;;;;;;;24.30;15.70;;;;;;;-1.36;88.58;99241.59;105983;1260;59608;-82
2023/12/12 09:04:21;;;;;;;22.90;13.90;;;;;;;-1.46;88.64;99239.09;106363;1260;59775;-84
2023/12/12 09:06:49;;;;;;;25.10;14.00;;;;;;;-1.51;88.77;99236.88;106407;1254;73154;-85
2023/12/12 09:09:17;;;;;;;25.20;14.20;;;;;;;-1.44;88.86;99246.42;106347;1255;68829;-82
2023/12/12 09:11:48;;;;;;;24.10;15.40;;;;;;;-1.42;88.92;99234.83;106234;1254;71081;-82
2023/12/12 09:14:15;;;;;;;23.60;13.60;;;;;;;-1.50;89.11;99220.23;106156;1258;59600;-82
2023/12/12 09:16:43;;;;;;;21.60;13.90;;;;;;;-1.51;89.02;99230.38;106700;1257;60286;-81
2023/12/12 09:19:14;;;;;;;27.90;15.40;;;;;;;-1.44;88.98;99229.27;106432;1259;73113;-81
2023/12/12 09:21:43;;;;;;;24.80;15.40;;;;;;;-1.44;88.91;99227.52;106362;1254;70348;-82
2023/12/12 09:24:10;;;;;;;27.00;16.20;;;;;;;-1.49;89.52;99230.48;106094;1260;71993;-82
2023/12/12 09:26:38;;;;;;;26.70;17.00;;;;;;;-1.57;89.59;99227.65;106401;1258;59630;-82
2023/12/12 09:29:06;;;;;;;26.50;15.80;;;;;;;-1.65;89.77;99219.91;106166;1260;59615;-82
2023/12/12 09:31:35;;;;;;;26.80;15.10;;;;;;;-1.60;89.60;99217.67;107103;1259;71992;-81
2023/12/12 09:34:03;;;;;;;25.70;15.50;;;;;;;-1.52;89.38;99218.67;107366;1259;72790;-77
2023/12/12 09:36:31;;;;;;;31.10;16.70;;;;;;;-1.53;89.62;99218.41;107397;1254;72670;-81
2023/12/12 09:39:03;;;;;;;28.00;16.60;;;;;;;-1.56;90.19;99208.54;108545;1258;59238;-81
2023/12/12 09:41:31;;;;;;;30.10;17.30;;;;;;;-1.58;90.31;99196.49;108364;1256;58313;-82
2023/12/12 09:44:02;;;;;;;29.80;17.90;;;;;;;-1.41;90.23;99196.05;107552;1262;73047;-82
2023/12/12 09:46:30;;;;;;;27.30;15.60;;;;;;;-1.27;90.30;99194.34;107090;1260;69222;-81
2023/12/12 09:48:58;;;;;;;31.80;18.80;;;;;;;-1.23;90.19;99178.95;106265;1260;71520;-81
2023/12/12 09:51:27;;;;;;;31.00;18.70;;;;;;;-1.23;89.85;99177.06;106374;1254;59745;-82
2023/12/12 09:53:54;;;;;;;36.60;19.30;;;;;;;-1.24;89.40;99183.38;106237;1258;59779;-82
2023/12/12 09:56:24;;;;;;;30.40;18.40;;;;;;;-1.16;89.03;99179.18;108036;1262;72130;-84
2023/12/12 09:58:52;;;;;;;35.90;20.40;;;;;;;-1.04;88.83;99185.45;107114;1260;71049;-82
2023/12/12 10:01:20;;;;;;;31.20;19.50;;;;;;;-1.02;89.03;99182.92;109319;1254;71518;-82
2023/12/12 10:03:48;;;;;;;29.40;19.00;;;;;;;-1.00;88.81;99187.63;109061;1253;59208;-82
2023/12/12 10:06:17;;;;;;;27.80;16.70;;;;;;;-1.02;88.05;99183.38;108988;1257;59530;-85
2023/12/12 10:08:45;;;;;;;30.10;18.00;;;;;;;-0.99;87.37;99179.06;108609;1254;71884;-80
2023/12/12 10:11:14;;;;;;;28.20;18.50;;;;;;;-1.00;87.33;99175.42;109033;1254;69037;-82
2023/12/12 10:13:54;;;;;;;36.00;21.70;;;;;;;-1.06;87.33;99178.65;108000;1259;71432;-82
2023/12/12 10:16:22;;;;;;;32.00;19.50;;;;;;;-1.14;87.47;99175.40;107171;1255;59638;-80
2023/12/12 10:18:51;;;;;;;30.20;19.10;;;;;;;-1.15;87.68;99179.63;106928;1260;59823;-82
2023/12/12 10:21:20;;;;;;;30.10;18.30;;;;;;;-1.10;87.32;99178.77;106794;1254;74825;-83
2023/12/12 10:23:49;;;;;;;27.00;18.40;;;;;;;-1.06;87.06;99176.73;106653;1256;70027;-83
2023/12/12 10:26:26;;;;;;;27.70;18.40;;;;;;;-1.09;87.36;99172.95;106672;1260;72657;-85
2023/12/12 10:28:56;;;;;;;29.30;19.50;;;;;;;-1.13;87.41;99172.92;106682;1258;59602;-81
2023/12/12 10:31:24;;;;;;;27.20;17.50;;;;;;;-1.17;87.77;99170.06;106358;1269;60323;-82
2023/12/12 10:33:52;;;;;;;29.10;18.50;;;;;;;-1.05;87.93;99173.89;105745;1257;72987;-79
2023/12/12 10:36:21;;;;;;;32.80;18.70;;;;;;;-0.89;87.35;99177.98;105856;1260;69120;-77
2023/12/12 10:38:49;;;;;;;28.10;17.70;;;;;;;-0.87;87.19;99180.83;105799;1258;73003;-80
2023/12/12 10:41:20;;;;;;;29.30;18.20;;;;;;;-0.93;87.05;99175.89;106139;1255;59742;-81
2023/12/12 10:43:53;;;;;;;32.10;20.20;;;;;;;-1.00;87.25;99181.23;105851;1259;59700;-83
2023/12/12 10:46:21;;;;;;;31.10;19.10;;;;;;;-1.05;87.17;99179.82;105659;1255;71745;-83
2023/12/12 10:48:49;;;;;;;29.90;19.60;;;;;;;-1.01;86.90;99181.06;105910;1260;69516;-83
2023/12/12 10:51:17;;;;;;;33.90;21.00;;;;;;;-0.95;86.85;99179.98;106279;1258;71386;-82
2023/12/12 10:53:46;;;;;;;36.70;21.80;;;;;;;-1.03;86.98;99179.30;106064;1262;59549;-87
2023/12/12 10:56:14;;;;;;;35.30;21.40;;;;;;;-1.09;87.29;99180.60;106806;1257;59602;-85
2023/12/12 10:58:43;;;;;;;31.10;17.20;;;;;;;-1.13;87.50;99184.89;106802;1255;71894;-85
2023/12/12 11:01:14;;;;;;;25.10;16.00;;;;;;;-1.11;87.24;99183.55;107747;1254;70286;-87
2023/12/12 11:03:45;;;;;;;22.00;15.30;;;;;;;-1.03;86.84;99186.63;109012;1254;71372;-82
2023/12/12 11:06:14;;;;;;;26.40;16.80;;;;;;;-1.04;86.82;99196.77;108401;1254;60262;-85
2023/12/12 11:25:30;;;;;;;21.40;13.40;;;;;;;-0.89;87.37;99196.80;107215;1276;60369;-93
2023/12/12 11:28:18;;;;;;;20.80;13.30;;;;;;;-0.70;86.61;99208.61;105692;1276;74078;-87
2023/12/12 11:30:51;;;;;;;21.80;14.20;;;;;;;-0.71;86.30;99195.86;105415;1276;69034;-86
2023/12/12 11:33:28;;;;;;;17.20;12.20;;;;;;;-0.73;86.42;99200.86;105316;1276;74967;-88
2023/12/12 11:36:10;;;;;;;18.70;12.00;;;;;;;-0.84;85.94;99201.31;105610;1276;60566;-89